Thunder radar more information blitzortung!


avis per Pluja more information rain snow radar


Visita la nostra xarxa de llocs de meteo:

Template documentation
and downloads

And another site



Rain From: 17-10-2018 23:00 Until: 18-10-2018 16:59 warning for: Rain Level: Yellow info button

Pagina Historial Weather Underground text

Diari Resum Abril 4, 2016 Unitats:  Mètric    Imperial   Tant
« Previous Dia
SegĂźent Dia »
Diari Setmana Mensual Anual Personalitzada
  Maxima: Minima: Media:
Temperatura: -17.8 °C -12.5 °C -10.3 °C
Punt de rosada: -17.8 °C -14.1 °C -12.6 °C
Humitat: Humidity % 68 % 75 %
Wind Speed: 0 km/h 0 km/h 11.6 km/h
RĂ fegues de vent: 0 km/h - -
Vent:- - SE
Pression baro: 0 hPa 33992.1 hPa -
Precipitacions: 25.4 mm    
Historical Graphs
 
 
Dades de taula per Abril 4, 2016
Temps Temperatura Punt de rosada Pression baro Vent Wind Speed RĂ fegues de vent Humitat Rainfall Rate (Hourly)
-17.8 °C -17.8 °C 0 hPa Calm     Humidity % 0 mm
00:05 -12 °C -13.6 °C 34256.2 hPa Calm   2.6 km/h 83 % 0 mm
00:15 -12.1 °C -13.5 °C 34256.2 hPa Calm     84 % 0 mm
00:25 -12.1 °C -13.5 °C 34256.2 hPa West 2.6 km/h 5.1 km/h 84 % 0 mm
00:35 -12.2 °C -13.7 °C 34256.2 hPa NNE 2.6 km/h 5.1 km/h 84 % 0 mm
00:45 -12.2 °C -13.7 °C 34256.2 hPa NE 2.6 km/h 5.1 km/h 84 % 0 mm
00:55 -12.3 °C -13.7 °C 34256.2 hPa Calm   2.6 km/h 84 % 0 mm
01:05 -12.3 °C -13.8 °C 34256.2 hPa Calm   2.6 km/h 83 % 0 mm
01:15 -12.3 °C -13.8 °C 34256.2 hPa Calm     83 % 0 mm
01:25 -12.3 °C -13.8 °C 34256.2 hPa NNE 2.6 km/h 5.1 km/h 83 % 0 mm
01:35 -12.4 °C -14.1 °C 34256.2 hPa North 2.6 km/h 2.6 km/h 82 % 0 mm
01:55 -12.5 °C -14 °C 34256.2 hPa Calm   2.6 km/h 83 % 0 mm
02:05 -12.4 °C -13.9 °C 34256.2 hPa Calm     84 % 0 mm
02:15 -12.5 °C -13.9 °C 34256.2 hPa Calm     84 % 0 mm
02:25 -12.4 °C -13.9 °C 34256.2 hPa Calm     84 % 0 mm
02:35 -12.4 °C -13.9 °C 34256.2 hPa Calm   5.1 km/h 84 % 0 mm
02:45 -12.4 °C -13.9 °C 34256.2 hPa Calm   2.6 km/h 84 % 0 mm
02:55 -12.4 °C -13.7 °C 34256.2 hPa Calm   2.6 km/h 85 % 0 mm
03:05 -12.4 °C -13.8 °C 34256.2 hPa WSW 2.6 km/h 5.1 km/h 84 % 0 mm
03:15 -12.4 °C -13.8 °C 34256.2 hPa SW 2.6 km/h 5.1 km/h 84 % 0 mm
03:25 -12.4 °C -13.7 °C 34256.2 hPa SW 2.6 km/h   85 % 0 mm
03:35 -12.3 °C -13.6 °C 34256.2 hPa Calm   5.1 km/h 86 % 0 mm
03:45 -12.3 °C -13.5 °C 34256.2 hPa Calm   5.1 km/h 86 % 0 mm
03:55 -12.3 °C -13.5 °C 34222.3 hPa Calm   2.6 km/h 86 % 0 mm
04:05 -12.2 °C -13.4 °C 34222.3 hPa ESE 2.6 km/h 5.1 km/h 86 % 0 mm
04:15 -12.2 °C -13.4 °C 34222.3 hPa Calm     86 % 0 mm
04:25 -12.1 °C -13.2 °C 34256.2 hPa NE 2.6 km/h 5.1 km/h 87 % 0 mm
04:35 -12.1 °C -13.3 °C 34256.2 hPa ENE 2.6 km/h 5.1 km/h 86 % 0 mm
04:45 -12 °C -13.2 °C 34256.2 hPa ENE 2.6 km/h 2.6 km/h 87 % 0 mm
04:55 -11.9 °C -13.2 °C 34256.2 hPa Calm   2.6 km/h 86 % 0 mm
05:05 -11.7 °C -12.9 °C 34256.2 hPa ENE 2.6 km/h 2.6 km/h 86 % 0 mm
05:15 -11.6 °C -12.8 °C 34256.2 hPa ESE 5.1 km/h 5.1 km/h 87 % 0 mm
05:25 -11.6 °C -12.9 °C 34256.2 hPa ENE 2.6 km/h 5.1 km/h 86 % 0 mm
05:35 -11.6 °C -12.9 °C 34256.2 hPa Calm   5.1 km/h 85 % 0 mm
10:51 -11.2 °C -12.7 °C 34256.2 hPa ENE 6 km/h 6 km/h 84 % 0 mm
10:56 -11.2 °C -12.7 °C 34256.2 hPa NE 3.1 km/h   84 % 0 mm
11:01 -11.1 °C -12.5 °C 34256.2 hPa NNE 6 km/h 6 km/h 84 % 0 mm
11:06 -11 °C -12.4 °C 34256.2 hPa NNE 9 km/h 9 km/h 84 % 0 mm
11:11 -11 °C -12.4 °C 34256.2 hPa NE 6 km/h 6 km/h 84 % 0 mm
11:16 -10.8 °C -12.3 °C 34256.2 hPa ENE 9 km/h 9 km/h 83 % 0 mm
11:21 -10.6 °C -12.2 °C 34222.3 hPa NE 9 km/h 9 km/h 83 % 0 mm
11:26 -10.6 °C -12.3 °C 34222.3 hPa WNW 11.9 km/h 11.9 km/h 82 % 0 mm
11:31 -10.4 °C -12.2 °C 34222.3 hPa ENE 6 km/h 6 km/h 81 % 0 mm
11:36 -10.3 °C -12.2 °C 34222.3 hPa ENE 9 km/h 9 km/h 80 % 0 mm
11:41 -10.3 °C -12.3 °C 34222.3 hPa East 9.3 km/h 9.3 km/h 79 % 0 mm
11:51 -10.3 °C -12.4 °C 34198.6 hPa ENE 6.3 km/h 6.3 km/h 77 % 0 mm
11:56 -10.2 °C -12.4 °C 34198.6 hPa East 9.8 km/h 9.8 km/h 77 % 0 mm
12:01 -10.2 °C -12.4 °C 34198.6 hPa East 11.9 km/h 11.9 km/h 76 % 0 mm
12:06 -10.2 °C -12.7 °C 34198.6 hPa ENE 11.9 km/h 11.9 km/h 75 % 0 mm
12:11 -10.2 °C -12.7 °C 34198.6 hPa East 6.3 km/h 6.8 km/h 74 % 0 mm
12:16 -10.1 °C -12.7 °C 34198.6 hPa ENE 11.1 km/h 11.1 km/h 74 % 0 mm
12:21 -10.1 °C -12.7 °C 34198.6 hPa ENE 9.3 km/h 9.3 km/h 73 % 0 mm
12:26 -10 °C -12.7 °C 34198.6 hPa NNE 15 km/h 15 km/h 73 % 0 mm
12:31 -9.8 °C -12.5 °C 34198.6 hPa East 11.9 km/h 11.9 km/h 73 % 0 mm
12:36 -9.8 °C -12.4 °C 34164.7 hPa ESE 17.9 km/h 17.9 km/h 73 % 0 mm
12:41 -9.7 °C -12.4 °C 34164.7 hPa ESE 11.9 km/h 11.9 km/h 73 % 0 mm
12:46 -9.7 °C -12.4 °C 34164.7 hPa ENE 12.7 km/h 12.7 km/h 73 % 0 mm
12:51 -9.7 °C -12.3 °C 34164.7 hPa NE 15 km/h 15 km/h 73 % 0 mm
12:56 -9.7 °C -12.2 °C 34164.7 hPa ESE 11.9 km/h 11.9 km/h 74 % 0 mm
13:01 -9.6 °C -12.2 °C 34164.7 hPa NE 15 km/h 15 km/h 74 % 0 mm
13:06 -9.6 °C -12.2 °C 34198.6 hPa ENE 17.9 km/h 17.9 km/h 74 % 0 mm
13:11 -9.7 °C -12.1 °C 34198.6 hPa ESE 15.3 km/h 15.3 km/h 75 % 0 mm
13:21 -9.6 °C -12 °C 34198.6 hPa ESE 20.9 km/h 20.9 km/h 75 % 0 mm
13:26 -9.4 °C -12 °C 34198.6 hPa SSE 23.8 km/h 23.8 km/h 74 % 0 mm
13:31 -9.4 °C -12 °C 34198.6 hPa ESE 19.2 km/h 19.2 km/h 74 % 0 mm
13:36 -9.4 °C -11.9 °C 34198.6 hPa ESE 20.9 km/h 20.9 km/h 74 % 0 mm
13:41 -9.3 °C -11.9 °C 34198.6 hPa South 26.9 km/h 26.9 km/h 74 % 0 mm
13:46 -9.3 °C -11.8 °C 34198.6 hPa ESE 34.1 km/h 34.1 km/h 75 % 0 mm
13:51 -9.3 °C -11.7 °C 34164.7 hPa ESE 17.9 km/h 17.9 km/h 75 % 0 mm
13:56 -9.3 °C -11.9 °C 34164.7 hPa ESE 20.9 km/h 20.9 km/h 74 % 0 mm
14:01 -9.1 °C -11.8 °C 34164.7 hPa ENE 23.8 km/h 23.8 km/h 73 % 0 mm
14:06 -9 °C -11.8 °C 34164.7 hPa East 26.9 km/h 26.9 km/h 72 % 0 mm
14:11 -9.1 °C -11.9 °C 34164.7 hPa SE 23.8 km/h 23.8 km/h 72 % 0 mm
14:16 -9.1 °C -12.1 °C 34164.7 hPa SSE 26.9 km/h 26.9 km/h 71 % 0 mm
14:21 -9 °C -12.1 °C 34130.9 hPa ESE 23.8 km/h 23.8 km/h 70 % 0 mm
14:26 -8.9 °C -11.9 °C 34130.9 hPa ESE 23.8 km/h 23.8 km/h 70 % 0 mm
14:31 -8.9 °C -11.9 °C 34130.9 hPa SSW 20.9 km/h 20.9 km/h 70 % 0 mm
14:36 -8.9 °C -12 °C 34130.9 hPa ESE 25.9 km/h 25.9 km/h 70 % 0 mm
14:41 -9.1 °C -12.2 °C 34130.9 hPa East 29.8 km/h 29.8 km/h 69 % 0 mm
14:46 -9.1 °C -12.1 °C 34130.9 hPa ESE 29.8 km/h 29.8 km/h 70 % 0 mm
14:51 -9 °C -12.2 °C 34130.9 hPa ESE 31.4 km/h 31.4 km/h 69 % 0 mm
14:56 -9 °C -12.2 °C 34130.9 hPa ESE 23.8 km/h 23.8 km/h 69 % 0 mm
15:01 -8.9 °C -12.2 °C 34130.9 hPa East 26.9 km/h 26.9 km/h 68 % 0 mm
15:06 -9 °C -12.3 °C 34130.9 hPa ESE 17.9 km/h 17.9 km/h 68 % 0 mm
15:11 -8.7 °C -11.9 °C 34130.9 hPa ENE 20.9 km/h 20.9 km/h 69 % 0 mm
15:21 -8.8 °C -12.1 °C 34130.9 hPa ENE 20.9 km/h 20.9 km/h 68 % 0 mm
15:26 -8.8 °C -12.1 °C 34130.9 hPa SE 26.9 km/h 26.9 km/h 68 % 0 mm
15:31 -8.9 °C -12.2 °C 34130.9 hPa ESE 23.8 km/h 23.8 km/h 68 % 0 mm
15:36 -9 °C -12.2 °C 34097 hPa ESE 20.9 km/h 20.9 km/h 69 % 0 mm
15:41 -9.1 °C -12.3 °C 34097 hPa ESE 26.9 km/h 26.9 km/h 69 % 0 mm
15:46 -9.2 °C -12.2 °C 34097 hPa East 16.1 km/h 16.1 km/h 70 % 0 mm
15:51 -9.1 °C -12.1 °C 34097 hPa NNE 11.9 km/h 11.9 km/h 70 % 0 mm
15:56 -9.1 °C -12.1 °C 34097 hPa East 20.9 km/h 20.9 km/h 70 % 0 mm
16:01 -9.2 °C -12.2 °C 34097 hPa East 23.8 km/h 23.8 km/h 70 % 0 mm
16:06 -9.2 °C -12.3 °C 34063.2 hPa ENE 25.1 km/h 25.1 km/h 70 % 0 mm
16:11 -9.2 °C -12.3 °C 34063.2 hPa East 20.9 km/h 20.9 km/h 70 % 0 mm
16:16 -9.2 °C -12.2 °C 34063.2 hPa NE 20.9 km/h 20.9 km/h 70 % 0 mm
16:21 -9.2 °C -12.1 °C 34063.2 hPa East 26.9 km/h 26.9 km/h 71 % 0 mm
16:26 -9.2 °C -12.1 °C 34063.2 hPa East 23.8 km/h 23.8 km/h 71 % 0 mm
16:31 -9.2 °C -12.1 °C 34063.2 hPa East 20.3 km/h 20.3 km/h 71 % 0 mm
16:36 -9.2 °C -12.1 °C 34063.2 hPa East 20.9 km/h 20.9 km/h 71 % 0 mm
16:41 -9.2 °C -12.1 °C 34063.2 hPa NNW 23.8 km/h 23.8 km/h 71 % 0 mm
16:46 -9.1 °C -11.9 °C 34063.2 hPa ESE 20.9 km/h 20.9 km/h 72 % 0 mm
16:51 -9.1 °C -12.1 °C 34063.2 hPa ESE 20.9 km/h 20.9 km/h 71 % 0 mm
16:56 -9.1 °C -11.9 °C 34063.2 hPa SSE 20.9 km/h 20.9 km/h 72 % 0 mm
17:01 -9.1 °C -11.9 °C 34063.2 hPa ENE 27.7 km/h 27.7 km/h 72 % 0 mm
17:06 -9.1 °C -11.8 °C 34063.2 hPa ESE 11.1 km/h 11.1 km/h 72 % 0 mm
17:11 -9.1 °C -12.1 °C 34063.2 hPa ENE 20.9 km/h 20.9 km/h 71 % 0 mm
17:16 -9.1 °C -11.9 °C 34063.2 hPa ESE 23.8 km/h 23.8 km/h 72 % 0 mm
17:21 -9.2 °C -12 °C 34063.2 hPa ENE 23.8 km/h 23.8 km/h 72 % 0 mm
17:26 -9.2 °C -12 °C 34063.2 hPa SE 17.9 km/h 17.9 km/h 72 % 0 mm
17:31 -9.2 °C -11.9 °C 34063.2 hPa ENE 15 km/h 15 km/h 73 % 0 mm
17:36 -9.3 °C -12 °C 34063.2 hPa ENE 23.8 km/h 23.8 km/h 73 % 0 mm
17:41 -9.3 °C -11.9 °C 34063.2 hPa NNE 6 km/h 6 km/h 73 % 0 mm
17:46 -9.3 °C -11.9 °C 34063.2 hPa ESE 15 km/h 15 km/h 73 % 0 mm
17:51 -9.3 °C -12 °C 34063.2 hPa ESE 15 km/h 15.3 km/h 73 % 0 mm
17:56 -9.2 °C -11.9 °C 34063.2 hPa ESE 16.6 km/h 16.6 km/h 73 % 0 mm
18:01 -9.3 °C -11.9 °C 34063.2 hPa ENE 17.9 km/h 17.9 km/h 73 % 0 mm
18:06 -9.3 °C -11.9 °C 34063.2 hPa ESE 20.9 km/h 20.9 km/h 73 % 0 mm
18:11 -9.3 °C -12 °C 34063.2 hPa NE 20.9 km/h 20.9 km/h 73 % 0 mm
18:16 -9.4 °C -12 °C 34063.2 hPa ESE 20.9 km/h 20.9 km/h 74 % 0 mm
18:21 -9.4 °C -12 °C 34029.3 hPa ESE 15.3 km/h 15.3 km/h 74 % 0 mm
18:26 -9.4 °C -12 °C 34029.3 hPa SE 15 km/h 15 km/h 74 % 0 mm
18:31 -9.4 °C -12 °C 34029.3 hPa ESE 15 km/h 15 km/h 74 % 0 mm
18:36 -9.3 °C -11.9 °C 34063.2 hPa West 14.5 km/h 14.5 km/h 74 % 0 mm
18:41 -9.3 °C -12.1 °C 34063.2 hPa WSW 9 km/h 9 km/h 72 % 0 mm
18:46 -9.3 °C -12.3 °C 34063.2 hPa WSW 17.9 km/h 17.9 km/h 70 % 0 mm
18:51 -9.4 °C -12.6 °C 34063.2 hPa SSW 17.9 km/h 17.9 km/h 69 % 0 mm
18:56 -9.4 °C -12.6 °C 34063.2 hPa SW 15 km/h 15 km/h 69 % 0 mm
19:01 -9.4 °C -12.6 °C 34063.2 hPa WSW 15 km/h 15 km/h 69 % 0 mm
19:06 -9.3 °C -12.4 °C 34029.3 hPa SW 15 km/h 15 km/h 69 % 0 mm
19:16 -9.4 °C -12.4 °C 34029.3 hPa WSW 11.9 km/h 11.9 km/h 70 % 0 mm
19:21 -9.6 °C -12.6 °C 34063.2 hPa SSW 9 km/h 9 km/h 70 % 0 mm
19:26 -9.6 °C -12.6 °C 34063.2 hPa SW 9 km/h 9 km/h 70 % 0 mm
19:31 -9.6 °C -12.6 °C 34063.2 hPa SW 9.8 km/h 9.8 km/h 70 % 0 mm
19:36 -9.7 °C -12.7 °C 34029.3 hPa West 15 km/h 15 km/h 70 % 0 mm
19:41 -9.7 °C -12.7 °C 34029.3 hPa SW 15 km/h 15 km/h 70 % 0 mm
19:46 -9.8 °C -12.8 °C 34029.3 hPa WSW 11.9 km/h 11.9 km/h 70 % 0 mm
19:51 -9.8 °C -12.9 °C 34029.3 hPa SW 16.1 km/h 16.1 km/h 69 % 0 mm
19:56 -9.9 °C -13 °C 34029.3 hPa WSW 17.9 km/h 17.9 km/h 69 % 0 mm
20:01 -9.9 °C -13.1 °C 34029.3 hPa SW 15 km/h 15 km/h 69 % 0 mm
20:11 -10 °C -13.1 °C 34029.3 hPa SW 8 km/h 8 km/h 69 % 0 mm
20:16 -10 °C -13 °C 34029.3 hPa SW 9 km/h 9 km/h 70 % 0 mm
20:21 -10.1 °C -13.1 °C 34029.3 hPa WSW 3.1 km/h   70 % 0 mm
20:26 -10.1 °C -13.1 °C 34029.3 hPa SW 6 km/h 6 km/h 70 % 0 mm
20:31 -10.1 °C -13.1 °C 34029.3 hPa SW 3.1 km/h   70 % 0 mm
20:36 -10.2 °C -13 °C 34029.3 hPa SW 6 km/h 6 km/h 71 % 0 mm
20:41 -10.2 °C -13 °C 34029.3 hPa Calm     71 % 0 mm
20:46 -10.2 °C -13 °C 34029.3 hPa SW 6.3 km/h 6.3 km/h 71 % 0 mm
20:51 -10.2 °C -13.1 °C 34029.3 hPa SW 3.1 km/h 3.7 km/h 71 % 0 mm
20:56 -10.2 °C -12.9 °C 34029.3 hPa SW 3.1 km/h 3.1 km/h 72 % 0 mm
21:01 -10.3 °C -13.2 °C 34029.3 hPa SE 7.6 km/h 7.6 km/h 71 % 0 mm
21:11 -10.3 °C -13.1 °C 34029.3 hPa SW 3.1 km/h   72 % 0 mm
21:16 -10.3 °C -13.1 °C 34029.3 hPa SW 3.1 km/h 3.1 km/h 72 % 0 mm
21:22 -10.4 °C -13.2 °C 34029.3 hPa Calm     72 % 0 mm
21:27 -10.4 °C -13 °C 34029.3 hPa Calm     73 % 0 mm
21:32 -10.4 °C -13.1 °C 34029.3 hPa Calm     73 % 0 mm
21:37 -10.4 °C -13.1 °C 34063.2 hPa Calm     73 % 0 mm
21:42 -10.5 °C -13 °C 34063.2 hPa SW 5.1 km/h   74 % 0 mm
21:47 -10.5 °C -13.1 °C 34063.2 hPa SW 5.1 km/h 5.1 km/h 73 % 0 mm
21:52 -10.5 °C -13.1 °C 34063.2 hPa SW 6 km/h 6 km/h 73 % 0 mm
21:57 -10.6 °C -13.1 °C 34063.2 hPa WSW 3.1 km/h 3.1 km/h 74 % 0 mm
22:02 -10.6 °C -12.9 °C 34063.2 hPa ESE 5.6 km/h   75 % 0 mm
22:07 -10.6 °C -12.9 °C 34029.3 hPa East 6 km/h 6 km/h 75 % 0 mm
22:12 -10.6 °C -12.9 °C 34029.3 hPa ESE 9.8 km/h 9.8 km/h 75 % 0 mm
22:17 -10.6 °C -12.8 °C 34029.3 hPa East 9 km/h 9 km/h 76 % 0 mm
22:22 -10.6 °C -12.7 °C 34063.2 hPa ENE 6 km/h 6 km/h 77 % 0 mm
22:27 -10.6 °C -12.7 °C 34063.2 hPa East 6 km/h 6 km/h 78 % 0 mm
22:32 -10.6 °C -12.7 °C 34063.2 hPa ENE 6.3 km/h 6.3 km/h 78 % 0 mm
22:37 -10.7 °C -12.7 °C 34029.3 hPa East 6 km/h 6 km/h 79 % 0 mm
22:42 -10.7 °C -12.7 °C 34029.3 hPa ENE 6 km/h 6 km/h 79 % 0 mm
22:47 -10.7 °C -12.7 °C 34029.3 hPa East 6.3 km/h 6.3 km/h 79 % 0 mm
22:52 -10.7 °C -12.7 °C 34063.2 hPa East 6.3 km/h 6.3 km/h 79 % 0 mm
22:57 -10.8 °C -12.7 °C 34063.2 hPa ENE 3.7 km/h 3.7 km/h 80 % 0 mm
23:02 -10.9 °C -12.7 °C 34063.2 hPa NE 6.3 km/h 6.3 km/h 81 % 0 mm
23:07 -10.9 °C -12.7 °C 34063.2 hPa ENE 6 km/h 6 km/h 81 % 0 mm
23:12 -10.9 °C -12.7 °C 34063.2 hPa ENE 6 km/h 6 km/h 81 % 0 mm
23:22 -10.9 °C -12.5 °C 34029.3 hPa East 9 km/h 9 km/h 83 % 0 mm
23:27 -11 °C -12.6 °C 34029.3 hPa NE 6 km/h 6 km/h 83 % 0 mm
23:32 -11 °C -12.6 °C 34029.3 hPa ENE 6 km/h 6.3 km/h 83 % 0 mm
23:37 -11 °C -12.6 °C 33992.1 hPa ENE 6 km/h 6.3 km/h 83 % 0 mm
23:42 -11 °C -12.6 °C 33992.1 hPa ENE 6 km/h 6.3 km/h 83 % 25.4 mm
23:47 -11.1 °C -12.6 °C 33992.1 hPa ENE 6 km/h 6.3 km/h 84 % 25.4 mm
23:52 -11.2 °C -12.6 °C 33992.1 hPa ENE 6 km/h 6.3 km/h 84 % 25.4 mm
23:57 -11.2 °C -12.6 °C 33992.1 hPa ENE 6 km/h 6.3 km/h 85 % 25.4 mm
Meteo Sesrovires
Elogis d' Weather Underground - 1.5 mb

Guio original per  Jim McMurry - jmcmurry@mwt.net Adaptat per a la plantilla per  Wim van der Kuil - Leuven-Template.eu

Trobareu la nostra informacio del temps tambe a:

Weather Underground

AWEKAS